sensor_id;sensor_type;location;lat;lon;timestamp;P1;durP1;ratioP1;P2;durP2;ratioP2
50733;SDS011;36701;51.798;19.474;2023-07-13T02:02:12;8.98;;;3.60;;
50733;SDS011;36701;51.798;19.474;2023-07-13T02:04:42;5.43;;;3.67;;
50733;SDS011;36701;51.798;19.474;2023-07-13T02:07:08;4.20;;;3.08;;
50733;SDS011;36701;51.798;19.474;2023-07-13T02:09:34;9.70;;;4.03;;
50733;SDS011;36701;51.798;19.474;2023-07-13T02:12:01;9.10;;;4.72;;
50733;SDS011;36701;51.798;19.474;2023-07-13T02:14:31;12.93;;;3.87;;
50733;SDS011;36701;51.798;19.474;2023-07-13T02:16:57;14.65;;;4.32;;
50733;SDS011;36701;51.798;19.474;2023-07-13T02:19:24;12.40;;;3.78;;
50733;SDS011;36701;51.798;19.474;2023-07-13T02:21:51;8.52;;;3.90;;
50733;SDS011;36701;51.798;19.474;2023-07-13T02:24:17;7.55;;;3.92;;
50733;SDS011;36701;51.798;19.474;2023-07-13T02:26:46;10.00;;;4.57;;
50733;SDS011;36701;51.798;19.474;2023-07-13T02:29:14;9.35;;;3.83;;
50733;SDS011;36701;51.798;19.474;2023-07-13T02:31:40;4.55;;;3.47;;
50733;SDS011;36701;51.798;19.474;2023-07-13T02:34:07;9.48;;;3.55;;
50733;SDS011;36701;51.798;19.474;2023-07-13T02:36:37;10.40;;;4.32;;
50733;SDS011;36701;51.798;19.474;2023-07-13T02:39:04;7.55;;;4.40;;
50733;SDS011;36701;51.798;19.474;2023-07-13T02:41:35;5.55;;;3.87;;
50733;SDS011;36701;51.798;19.474;2023-07-13T02:44:04;10.38;;;4.18;;
50733;SDS011;36701;51.798;19.474;2023-07-13T02:46:30;7.15;;;3.90;;
50733;SDS011;36701;51.798;19.474;2023-07-13T02:48:57;11.77;;;4.07;;
50733;SDS011;36701;51.798;19.474;2023-07-13T02:51:25;10.60;;;3.53;;
50733;SDS011;36701;51.798;19.474;2023-07-13T02:53:52;8.23;;;4.00;;
50733;SDS011;36701;51.798;19.474;2023-07-13T02:56:22;7.82;;;3.95;;
50733;SDS011;36701;51.798;19.474;2023-07-13T02:58:51;12.45;;;4.82;;
50733;SDS011;36701;51.798;19.474;2023-07-13T03:01:19;9.98;;;4.53;;
50733;SDS011;36701;51.798;19.474;2023-07-13T03:03:51;7.55;;;4.10;;
50733;SDS011;36701;51.798;19.474;2023-07-13T03:06:19;8.07;;;4.45;;
50733;SDS011;36701;51.798;19.474;2023-07-13T03:08:46;9.68;;;4.70;;
50733;SDS011;36701;51.798;19.474;2023-07-13T03:11:17;9.13;;;4.65;;
50733;SDS011;36701;51.798;19.474;2023-07-13T03:13:48;7.72;;;5.35;;
50733;SDS011;36701;51.798;19.474;2023-07-13T03:16:15;13.80;;;4.15;;
50733;SDS011;36701;51.798;19.474;2023-07-13T03:18:52;13.27;;;4.47;;
50733;SDS011;36701;51.798;19.474;2023-07-13T03:21:19;9.90;;;4.70;;
50733;SDS011;36701;51.798;19.474;2023-07-13T03:23:47;7.72;;;4.25;;
50733;SDS011;36701;51.798;19.474;2023-07-13T03:26:18;12.32;;;4.53;;
50733;SDS011;36701;51.798;19.474;2023-07-13T03:28:49;10.65;;;4.60;;
50733;SDS011;36701;51.798;19.474;2023-07-13T03:31:20;10.65;;;5.25;;
50733;SDS011;36701;51.798;19.474;2023-07-13T03:33:47;14.02;;;4.62;;
50733;SDS011;36701;51.798;19.474;2023-07-13T03:36:17;10.27;;;5.18;;
50733;SDS011;36701;51.798;19.474;2023-07-13T03:38:51;6.03;;;4.50;;
50733;SDS011;36701;51.798;19.474;2023-07-13T03:41:18;7.30;;;4.72;;
50733;SDS011;36701;51.798;19.474;2023-07-13T03:43:49;28.00;;;5.05;;
50733;SDS011;36701;51.798;19.474;2023-07-13T03:46:17;9.88;;;4.55;;
50733;SDS011;36701;51.798;19.474;2023-07-13T03:48:45;6.50;;;4.47;;
50733;SDS011;36701;51.798;19.474;2023-07-13T03:51:14;11.05;;;4.43;;
50733;SDS011;36701;51.798;19.474;2023-07-13T03:53:42;5.53;;;4.32;;
50733;SDS011;36701;51.798;19.474;2023-07-13T03:56:11;14.05;;;4.85;;
50733;SDS011;36701;51.798;19.474;2023-07-13T03:58:38;8.30;;;5.03;;
50733;SDS011;36701;51.798;19.474;2023-07-13T04:01:08;13.62;;;4.95;;
50733;SDS011;36701;51.798;19.474;2023-07-13T04:03:36;15.70;;;4.70;;
50733;SDS011;36701;51.798;19.474;2023-07-13T04:06:05;8.88;;;4.93;;
50733;SDS011;36701;51.798;19.474;2023-07-13T04:08:33;14.35;;;5.65;;
50733;SDS011;36701;51.798;19.474;2023-07-13T04:11:02;8.48;;;5.37;;
50733;SDS011;36701;51.798;19.474;2023-07-13T04:13:29;7.62;;;5.15;;
50733;SDS011;36701;51.798;19.474;2023-07-13T04:15:55;12.70;;;5.97;;
50733;SDS011;36701;51.798;19.474;2023-07-13T04:18:24;16.95;;;5.78;;
50733;SDS011;36701;51.798;19.474;2023-07-13T04:20:53;11.20;;;5.12;;
50733;SDS011;36701;51.798;19.474;2023-07-13T04:23:24;11.12;;;5.20;;
50733;SDS011;36701;51.798;19.474;2023-07-13T04:25:52;13.93;;;4.93;;
50733;SDS011;36701;51.798;19.474;2023-07-13T04:28:23;9.93;;;4.43;;
50733;SDS011;36701;51.798;19.474;2023-07-13T04:30:50;12.80;;;5.37;;
50733;SDS011;36701;51.798;19.474;2023-07-13T04:33:17;9.15;;;5.32;;
50733;SDS011;36701;51.798;19.474;2023-07-13T04:35:51;11.70;;;5.28;;
50733;SDS011;36701;51.798;19.474;2023-07-13T04:38:26;12.88;;;4.97;;
50733;SDS011;36701;51.798;19.474;2023-07-13T04:40:58;14.38;;;4.85;;
50733;SDS011;36701;51.798;19.474;2023-07-13T04:43:25;7.43;;;4.95;;
50733;SDS011;36701;51.798;19.474;2023-07-13T04:45:51;14.77;;;4.93;;
50733;SDS011;36701;51.798;19.474;2023-07-13T04:48:19;5.62;;;4.32;;
50733;SDS011;36701;51.798;19.474;2023-07-13T04:50:45;8.15;;;5.10;;
50733;SDS011;36701;51.798;19.474;2023-07-13T04:53:15;15.75;;;5.07;;
50733;SDS011;36701;51.798;19.474;2023-07-13T04:55:43;15.30;;;5.07;;
50733;SDS011;36701;51.798;19.474;2023-07-13T04:58:10;6.75;;;4.82;;
50733;SDS011;36701;51.798;19.474;2023-07-13T05:00:36;13.82;;;6.10;;
50733;SDS011;36701;51.798;19.474;2023-07-13T05:03:03;14.10;;;5.72;;
50733;SDS011;36701;51.798;19.474;2023-07-13T05:05:29;16.17;;;5.72;;
50733;SDS011;36701;51.798;19.474;2023-07-13T05:07:55;17.30;;;5.53;;
50733;SDS011;36701;51.798;19.474;2023-07-13T05:10:22;9.77;;;5.15;;
50733;SDS011;36701;51.798;19.474;2023-07-13T05:12:49;12.10;;;5.78;;
50733;SDS011;36701;51.798;19.474;2023-07-13T05:15:15;16.02;;;5.40;;
50733;SDS011;36701;51.798;19.474;2023-07-13T05:17:42;12.95;;;5.28;;
50733;SDS011;36701;51.798;19.474;2023-07-13T05:20:08;12.45;;;5.55;;
50733;SDS011;36701;51.798;19.474;2023-07-13T05:22:35;11.57;;;5.55;;
50733;SDS011;36701;51.798;19.474;2023-07-13T05:25:02;16.33;;;5.93;;
50733;SDS011;36701;51.798;19.474;2023-07-13T05:27:29;6.85;;;5.43;;
50733;SDS011;36701;51.798;19.474;2023-07-13T05:29:55;17.67;;;5.20;;
50733;SDS011;36701;51.798;19.474;2023-07-13T05:32:23;10.05;;;5.65;;
50733;SDS011;36701;51.798;19.474;2023-07-13T05:34:50;10.48;;;6.03;;
50733;SDS011;36701;51.798;19.474;2023-07-13T05:37:16;13.48;;;5.07;;
50733;SDS011;36701;51.798;19.474;2023-07-13T05:39:42;9.10;;;5.35;;
50733;SDS011;36701;51.798;19.474;2023-07-13T05:42:14;5.20;;;4.70;;
50733;SDS011;36701;51.798;19.474;2023-07-13T05:44:40;9.25;;;5.00;;
50733;SDS011;36701;51.798;19.474;2023-07-13T05:47:07;14.38;;;5.47;;
50733;SDS011;36701;51.798;19.474;2023-07-13T05:49:34;7.30;;;5.45;;
50733;SDS011;36701;51.798;19.474;2023-07-13T05:52:00;10.27;;;5.32;;
50733;SDS011;36701;51.798;19.474;2023-07-13T05:54:28;10.10;;;5.28;;
50733;SDS011;36701;51.798;19.474;2023-07-13T05:56:57;15.10;;;8.55;;
50733;SDS011;36701;51.798;19.474;2023-07-13T05:59:23;6.15;;;5.28;;
50733;SDS011;36701;51.798;19.474;2023-07-13T06:01:50;7.60;;;5.30;;
50733;SDS011;36701;51.798;19.474;2023-07-13T06:04:18;6.72;;;4.80;;
50733;SDS011;36701;51.798;19.474;2023-07-13T06:06:46;11.27;;;6.20;;
50733;SDS011;36701;51.798;19.474;2023-07-13T06:09:12;8.98;;;5.12;;
50733;SDS011;36701;51.798;19.474;2023-07-13T06:11:38;10.38;;;5.30;;
50733;SDS011;36701;51.798;19.474;2023-07-13T06:14:04;14.93;;;5.70;;
50733;SDS011;36701;51.798;19.474;2023-07-13T06:16:30;6.75;;;4.85;;
50733;SDS011;36701;51.798;19.474;2023-07-13T06:18:57;8.52;;;4.97;;
50733;SDS011;36701;51.798;19.474;2023-07-13T06:21:24;8.57;;;5.35;;
50733;SDS011;36701;51.798;19.474;2023-07-13T06:23:51;6.80;;;4.85;;
50733;SDS011;36701;51.798;19.474;2023-07-13T06:26:19;9.98;;;5.43;;
50733;SDS011;36701;51.798;19.474;2023-07-13T06:28:45;7.00;;;4.93;;
50733;SDS011;36701;51.798;19.474;2023-07-13T06:31:12;8.55;;;5.12;;
50733;SDS011;36701;51.798;19.474;2023-07-13T06:33:39;9.57;;;5.28;;
50733;SDS011;36701;51.798;19.474;2023-07-13T06:36:06;5.45;;;4.62;;
50733;SDS011;36701;51.798;19.474;2023-07-13T06:38:33;9.45;;;5.20;;
50733;SDS011;36701;51.798;19.474;2023-07-13T06:41:00;8.35;;;5.57;;
50733;SDS011;36701;51.798;19.474;2023-07-13T06:43:26;15.70;;;9.95;;
50733;SDS011;36701;51.798;19.474;2023-07-13T06:45:54;6.32;;;4.80;;
50733;SDS011;36701;51.798;19.474;2023-07-13T06:48:21;9.18;;;5.45;;
50733;SDS011;36701;51.798;19.474;2023-07-13T06:50:48;9.68;;;5.55;;
50733;SDS011;36701;51.798;19.474;2023-07-13T06:53:15;9.82;;;4.75;;
50733;SDS011;36701;51.798;19.474;2023-07-13T06:55:43;4.95;;;4.45;;
50733;SDS011;36701;51.798;19.474;2023-07-13T06:58:16;10.52;;;5.30;;
50733;SDS011;36701;51.798;19.474;2023-07-13T07:00:43;12.07;;;5.53;;
50733;SDS011;36701;51.798;19.474;2023-07-13T07:03:09;11.20;;;4.12;;
50733;SDS011;36701;51.798;19.474;2023-07-13T07:05:36;7.10;;;4.97;;
50733;SDS011;36701;51.798;19.474;2023-07-13T07:08:03;7.20;;;5.37;;
50733;SDS011;36701;51.798;19.474;2023-07-13T07:10:30;5.37;;;4.12;;
50733;SDS011;36701;51.798;19.474;2023-07-13T07:12:57;8.32;;;5.32;;
50733;SDS011;36701;51.798;19.474;2023-07-13T07:15:23;10.82;;;5.45;;
50733;SDS011;36701;51.798;19.474;2023-07-13T07:17:49;7.22;;;5.37;;
50733;SDS011;36701;51.798;19.474;2023-07-13T07:20:15;11.50;;;4.78;;
50733;SDS011;36701;51.798;19.474;2023-07-13T07:22:48;9.15;;;5.70;;
50733;SDS011;36701;51.798;19.474;2023-07-13T07:25:14;15.15;;;5.68;;
50733;SDS011;36701;51.798;19.474;2023-07-13T07:27:40;9.20;;;5.20;;
50733;SDS011;36701;51.798;19.474;2023-07-13T07:30:07;7.15;;;4.43;;
50733;SDS011;36701;51.798;19.474;2023-07-13T07:32:33;10.07;;;4.20;;
50733;SDS011;36701;51.798;19.474;2023-07-13T07:34:59;6.55;;;4.07;;
50733;SDS011;36701;51.798;19.474;2023-07-13T07:37:25;5.05;;;3.90;;
50733;SDS011;36701;51.798;19.474;2023-07-13T07:39:52;8.45;;;3.78;;
50733;SDS011;36701;51.798;19.474;2023-07-13T07:42:18;6.10;;;3.15;;
50733;SDS011;36701;51.798;19.474;2023-07-13T07:44:44;4.03;;;3.25;;
50733;SDS011;36701;51.798;19.474;2023-07-13T07:47:10;4.05;;;3.22;;
50733;SDS011;36701;51.798;19.474;2023-07-13T07:49:37;4.78;;;3.00;;
50733;SDS011;36701;51.798;19.474;2023-07-13T07:52:04;6.03;;;3.70;;
50733;SDS011;36701;51.798;19.474;2023-07-13T07:54:30;19.98;;;3.80;;
50733;SDS011;36701;51.798;19.474;2023-07-13T07:56:56;3.47;;;2.85;;
50733;SDS011;36701;51.798;19.474;2023-07-13T07:59:23;3.15;;;2.95;;
50733;SDS011;36701;51.798;19.474;2023-07-13T08:01:49;5.72;;;3.22;;
50733;SDS011;36701;51.798;19.474;2023-07-13T08:04:16;3.03;;;2.83;;
50733;SDS011;36701;51.798;19.474;2023-07-13T08:06:42;5.87;;;3.40;;
50733;SDS011;36701;51.798;19.474;2023-07-13T08:09:09;3.35;;;2.65;;
50733;SDS011;36701;51.798;19.474;2023-07-13T08:11:35;6.10;;;3.20;;
50733;SDS011;36701;51.798;19.474;2023-07-13T08:14:01;6.32;;;3.40;;
50733;SDS011;36701;51.798;19.474;2023-07-13T08:16:27;5.37;;;3.50;;
50733;SDS011;36701;51.798;19.474;2023-07-13T08:18:54;12.48;;;5.80;;
50733;SDS011;36701;51.798;19.474;2023-07-13T08:21:20;18.12;;;5.72;;
50733;SDS011;36701;51.798;19.474;2023-07-13T08:23:47;14.70;;;6.37;;
50733;SDS011;36701;51.798;19.474;2023-07-13T08:26:14;38.17;;;7.40;;
50733;SDS011;36701;51.798;19.474;2023-07-13T08:28:40;9.13;;;7.32;;
50733;SDS011;36701;51.798;19.474;2023-07-13T08:31:07;11.15;;;7.40;;
50733;SDS011;36701;51.798;19.474;2023-07-13T08:33:34;11.85;;;6.87;;
50733;SDS011;36701;51.798;19.474;2023-07-13T08:36:01;20.42;;;6.90;;
50733;SDS011;36701;51.798;19.474;2023-07-13T08:38:27;12.60;;;6.60;;
50733;SDS011;36701;51.798;19.474;2023-07-13T08:40:54;11.85;;;5.82;;
50733;SDS011;36701;51.798;19.474;2023-07-13T08:43:28;10.00;;;6.40;;
50733;SDS011;36701;51.798;19.474;2023-07-13T08:46:08;11.88;;;4.78;;
50733;SDS011;36701;51.798;19.474;2023-07-13T08:48:37;7.07;;;4.90;;
50733;SDS011;36701;51.798;19.474;2023-07-13T08:51:09;14.38;;;5.07;;
50733;SDS011;36701;51.798;19.474;2023-07-13T08:53:38;11.85;;;4.55;;
50733;SDS011;36701;51.798;19.474;2023-07-13T08:56:09;11.02;;;4.80;;
50733;SDS011;36701;51.798;19.474;2023-07-13T08:58:37;6.50;;;4.47;;
50733;SDS011;36701;51.798;19.474;2023-07-13T09:01:15;11.20;;;4.80;;
50733;SDS011;36701;51.798;19.474;2023-07-13T09:03:54;9.52;;;4.68;;
50733;SDS011;36701;51.798;19.474;2023-07-13T09:06:23;8.55;;;4.90;;
50733;SDS011;36701;51.798;19.474;2023-07-13T09:08:58;12.63;;;5.15;;
50733;SDS011;36701;51.798;19.474;2023-07-13T09:11:32;6.95;;;4.03;;
50733;SDS011;36701;51.798;19.474;2023-07-13T09:16:30;6.37;;;4.15;;
50733;SDS011;36701;51.798;19.474;2023-07-13T09:18:58;9.23;;;5.15;;
50733;SDS011;36701;51.798;19.474;2023-07-13T09:21:27;12.70;;;4.07;;
50733;SDS011;36701;51.798;19.474;2023-07-13T09:26:45;3.90;;;3.45;;
50733;SDS011;36701;51.798;19.474;2023-07-13T09:29:13;19.40;;;3.97;;
50733;SDS011;36701;51.798;19.474;2023-07-13T09:31:44;7.53;;;3.92;;
50733;SDS011;36701;51.798;19.474;2023-07-13T09:34:14;6.50;;;3.55;;
50733;SDS011;36701;51.798;19.474;2023-07-13T09:36:40;6.60;;;3.95;;
50733;SDS011;36701;51.798;19.474;2023-07-13T09:39:21;8.45;;;4.22;;
50733;SDS011;36701;51.798;19.474;2023-07-13T09:41:53;8.35;;;4.07;;
50733;SDS011;36701;51.798;19.474;2023-07-13T09:44:29;6.45;;;3.80;;
50733;SDS011;36701;51.798;19.474;2023-07-13T09:46:57;3.90;;;3.50;;
50733;SDS011;36701;51.798;19.474;2023-07-13T09:49:27;8.30;;;3.80;;
50733;SDS011;36701;51.798;19.474;2023-07-13T09:52:03;7.25;;;3.67;;
50733;SDS011;36701;51.798;19.474;2023-07-13T09:54:32;5.07;;;4.00;;
50733;SDS011;36701;51.798;19.474;2023-07-13T09:56:59;5.55;;;3.58;;
50733;SDS011;36701;51.798;19.474;2023-07-13T09:59:32;3.65;;;3.20;;
50733;SDS011;36701;51.798;19.474;2023-07-13T10:01:59;7.10;;;3.58;;
50733;SDS011;36701;51.798;19.474;2023-07-13T10:04:28;4.32;;;3.05;;
50733;SDS011;36701;51.798;19.474;2023-07-13T10:07:04;10.57;;;3.10;;
50733;SDS011;36701;51.798;19.474;2023-07-13T10:09:36;3.65;;;3.03;;
50733;SDS011;36701;51.798;19.474;2023-07-13T10:12:12;12.43;;;3.80;;
50733;SDS011;36701;51.798;19.474;2023-07-13T10:14:39;7.60;;;3.85;;
50733;SDS011;36701;51.798;19.474;2023-07-13T10:17:10;4.60;;;2.83;;
50733;SDS011;36701;51.798;19.474;2023-07-13T10:19:38;3.33;;;3.03;;
50733;SDS011;36701;51.798;19.474;2023-07-13T10:24:39;3.72;;;3.17;;
50733;SDS011;36701;51.798;19.474;2023-07-13T10:27:15;8.45;;;3.08;;
50733;SDS011;36701;51.798;19.474;2023-07-13T10:29:45;5.65;;;3.30;;
50733;SDS011;36701;51.798;19.474;2023-07-13T10:32:12;5.75;;;4.40;;
50733;SDS011;36701;51.798;19.474;2023-07-13T10:34:41;4.20;;;3.35;;
50733;SDS011;36701;51.798;19.474;2023-07-13T10:37:31;10.05;;;3.45;;
50733;SDS011;36701;51.798;19.474;2023-07-13T10:39:59;4.05;;;3.15;;
50733;SDS011;36701;51.798;19.474;2023-07-13T10:42:35;4.70;;;3.28;;
50733;SDS011;36701;51.798;19.474;2023-07-13T10:45:20;4.45;;;3.22;;
50733;SDS011;36701;51.798;19.474;2023-07-13T10:47:49;5.35;;;3.42;;
50733;SDS011;36701;51.798;19.474;2023-07-13T10:50:19;10.35;;;4.10;;
50733;SDS011;36701;51.798;19.474;2023-07-13T10:52:47;10.50;;;3.92;;
50733;SDS011;36701;51.798;19.474;2023-07-13T10:58:00;3.75;;;3.35;;
50733;SDS011;36701;51.798;19.474;2023-07-13T11:03:20;8.23;;;3.60;;
50733;SDS011;36701;51.798;19.474;2023-07-13T11:05:48;6.18;;;3.30;;
50733;SDS011;36701;51.798;19.474;2023-07-13T11:10:48;6.22;;;3.42;;
50733;SDS011;36701;51.798;19.474;2023-07-13T11:15:44;6.80;;;3.87;;
50733;SDS011;36701;51.798;19.474;2023-07-13T11:18:23;4.93;;;3.83;;
50733;SDS011;36701;51.798;19.474;2023-07-13T11:20:52;5.18;;;3.30;;
50733;SDS011;36701;51.798;19.474;2023-07-13T11:23:38;5.43;;;4.12;;
50733;SDS011;36701;51.798;19.474;2023-07-13T11:26:37;5.35;;;3.75;;
50733;SDS011;36701;51.798;19.474;2023-07-13T11:28:53;3.72;;;3.10;;
50733;SDS011;36701;51.798;19.474;2023-07-13T11:31:20;6.57;;;3.58;;
50733;SDS011;36701;51.798;19.474;2023-07-13T11:33:53;10.00;;;3.37;;
50733;SDS011;36701;51.798;19.474;2023-07-13T11:36:21;9.18;;;3.67;;
50733;SDS011;36701;51.798;19.474;2023-07-13T11:38:59;7.75;;;3.42;;
50733;SDS011;36701;51.798;19.474;2023-07-13T11:41:28;3.47;;;3.10;;
50733;SDS011;36701;51.798;19.474;2023-07-13T11:44:02;4.37;;;3.97;;
50733;SDS011;36701;51.798;19.474;2023-07-13T11:46:31;3.50;;;3.20;;
50733;SDS011;36701;51.798;19.474;2023-07-13T11:48:57;5.45;;;3.30;;
50733;SDS011;36701;51.798;19.474;2023-07-13T11:51:25;11.12;;;5.80;;
50733;SDS011;36701;51.798;19.474;2023-07-13T11:53:53;15.88;;;4.45;;
50733;SDS011;36701;51.798;19.474;2023-07-13T11:56:19;7.50;;;3.90;;
50733;SDS011;36701;51.798;19.474;2023-07-13T11:58:48;5.93;;;3.22;;
50733;SDS011;36701;51.798;19.474;2023-07-13T12:01:20;12.32;;;3.30;;
50733;SDS011;36701;51.798;19.474;2023-07-13T12:03:49;6.30;;;2.85;;
50733;SDS011;36701;51.798;19.474;2023-07-13T12:06:25;13.38;;;3.42;;
50733;SDS011;36701;51.798;19.474;2023-07-13T12:08:52;7.25;;;6.05;;
50733;SDS011;36701;51.798;19.474;2023-07-13T12:11:21;4.25;;;3.22;;
50733;SDS011;36701;51.798;19.474;2023-07-13T12:13:48;5.45;;;3.17;;
50733;SDS011;36701;51.798;19.474;2023-07-13T12:16:22;4.50;;;2.90;;
50733;SDS011;36701;51.798;19.474;2023-07-13T12:18:52;12.57;;;4.35;;
50733;SDS011;36701;51.798;19.474;2023-07-13T12:21:19;8.77;;;4.50;;
50733;SDS011;36701;51.798;19.474;2023-07-13T12:23:48;9.43;;;4.22;;
50733;SDS011;36701;51.798;19.474;2023-07-13T12:26:16;8.82;;;3.33;;
50733;SDS011;36701;51.798;19.474;2023-07-13T12:28:46;7.68;;;3.10;;
50733;SDS011;36701;51.798;19.474;2023-07-13T12:32:07;4.15;;;2.40;;
50733;SDS011;36701;51.798;19.474;2023-07-13T12:34:15;3.92;;;2.72;;
50733;SDS011;36701;51.798;19.474;2023-07-13T12:37:01;7.65;;;2.17;;
50733;SDS011;36701;51.798;19.474;2023-07-13T12:39:35;5.50;;;2.70;;
50733;SDS011;36701;51.798;19.474;2023-07-13T12:42:17;7.28;;;2.50;;
50733;SDS011;36701;51.798;19.474;2023-07-13T12:44:45;4.07;;;1.95;;
50733;SDS011;36701;51.798;19.474;2023-07-13T12:47:12;2.90;;;2.50;;
50733;SDS011;36701;51.798;19.474;2023-07-13T12:49:43;9.02;;;2.78;;
50733;SDS011;36701;51.798;19.474;2023-07-13T12:52:17;6.70;;;2.33;;
50733;SDS011;36701;51.798;19.474;2023-07-13T12:54:55;4.47;;;2.30;;
50733;SDS011;36701;51.798;19.474;2023-07-13T12:57:23;5.68;;;1.87;;
50733;SDS011;36701;51.798;19.474;2023-07-13T12:59:53;4.65;;;2.97;;
50733;SDS011;36701;51.798;19.474;2023-07-13T13:02:28;4.87;;;2.67;;
50733;SDS011;36701;51.798;19.474;2023-07-13T13:07:26;7.78;;;2.92;;
50733;SDS011;36701;51.798;19.474;2023-07-13T13:09:54;3.22;;;2.50;;
50733;SDS011;36701;51.798;19.474;2023-07-13T13:12:21;4.78;;;3.20;;
50733;SDS011;36701;51.798;19.474;2023-07-13T13:14:55;4.95;;;3.15;;
50733;SDS011;36701;51.798;19.474;2023-07-13T13:17:24;4.20;;;3.03;;
50733;SDS011;36701;51.798;19.474;2023-07-13T13:19:56;4.05;;;2.60;;
50733;SDS011;36701;51.798;19.474;2023-07-13T13:22:27;7.82;;;2.62;;
50733;SDS011;36701;51.798;19.474;2023-07-13T13:24:54;6.68;;;3.03;;
50733;SDS011;36701;51.798;19.474;2023-07-13T13:27:22;4.12;;;2.67;;
50733;SDS011;36701;51.798;19.474;2023-07-13T13:29:50;7.00;;;3.70;;
50733;SDS011;36701;51.798;19.474;2023-07-13T13:32:17;13.50;;;2.47;;
50733;SDS011;36701;51.798;19.474;2023-07-13T13:34:45;11.77;;;2.58;;
50733;SDS011;36701;51.798;19.474;2023-07-13T13:37:20;5.70;;;3.08;;
50733;SDS011;36701;51.798;19.474;2023-07-13T13:39:47;7.18;;;2.37;;
50733;SDS011;36701;51.798;19.474;2023-07-13T13:42:20;6.25;;;3.50;;
50733;SDS011;36701;51.798;19.474;2023-07-13T13:44:50;6.85;;;2.75;;
50733;SDS011;36701;51.798;19.474;2023-07-13T13:47:38;6.12;;;2.92;;
50733;SDS011;36701;51.798;19.474;2023-07-13T13:50:20;2.80;;;2.60;;
50733;SDS011;36701;51.798;19.474;2023-07-13T13:52:48;6.25;;;2.85;;
50733;SDS011;36701;51.798;19.474;2023-07-13T13:55:18;3.20;;;2.90;;
50733;SDS011;36701;51.798;19.474;2023-07-13T13:57:45;2.87;;;2.67;;
50733;SDS011;36701;51.798;19.474;2023-07-13T14:00:16;2.62;;;2.42;;
50733;SDS011;36701;51.798;19.474;2023-07-13T14:02:44;7.60;;;3.40;;
50733;SDS011;36701;51.798;19.474;2023-07-13T14:07:40;5.78;;;2.95;;
50733;SDS011;36701;51.798;19.474;2023-07-13T14:10:16;5.78;;;2.72;;
50733;SDS011;36701;51.798;19.474;2023-07-13T14:12:44;3.47;;;2.60;;
50733;SDS011;36701;51.798;19.474;2023-07-13T14:15:30;5.70;;;2.50;;
50733;SDS011;36701;51.798;19.474;2023-07-13T14:17:57;5.12;;;2.83;;
50733;SDS011;36701;51.798;19.474;2023-07-13T14:20:25;2.45;;;2.33;;
50733;SDS011;36701;51.798;19.474;2023-07-13T14:22:52;3.53;;;2.47;;
50733;SDS011;36701;51.798;19.474;2023-07-13T14:25:19;4.82;;;2.30;;
50733;SDS011;36701;51.798;19.474;2023-07-13T14:27:47;6.20;;;2.60;;
50733;SDS011;36701;51.798;19.474;2023-07-13T14:30:18;4.25;;;2.50;;
50733;SDS011;36701;51.798;19.474;2023-07-13T14:32:45;2.42;;;2.20;;
50733;SDS011;36701;51.798;19.474;2023-07-13T14:35:18;3.58;;;2.47;;
50733;SDS011;36701;51.798;19.474;2023-07-13T14:37:46;5.25;;;2.78;;
50733;SDS011;36701;51.798;19.474;2023-07-13T14:42:40;4.90;;;2.97;;
50733;SDS011;36701;51.798;19.474;2023-07-13T14:45:17;3.40;;;2.33;;
50733;SDS011;36701;51.798;19.474;2023-07-13T14:47:50;3.40;;;2.30;;
50733;SDS011;36701;51.798;19.474;2023-07-13T14:50:18;3.17;;;2.03;;
50733;SDS011;36701;51.798;19.474;2023-07-13T14:52:45;5.20;;;2.40;;
50733;SDS011;36701;51.798;19.474;2023-07-13T14:55:13;10.60;;;2.35;;
50733;SDS011;36701;51.798;19.474;2023-07-13T14:57:40;2.30;;;2.15;;
50733;SDS011;36701;51.798;19.474;2023-07-13T15:00:17;4.97;;;2.50;;
50733;SDS011;36701;51.798;19.474;2023-07-13T15:02:45;3.20;;;2.20;;
50733;SDS011;36701;51.798;19.474;2023-07-13T15:05:18;2.60;;;2.40;;
50733;SDS011;36701;51.798;19.474;2023-07-13T15:07:45;4.65;;;2.28;;
50733;SDS011;36701;51.798;19.474;2023-07-13T15:10:15;2.92;;;2.17;;
50733;SDS011;36701;51.798;19.474;2023-07-13T15:12:45;8.35;;;2.20;;
50733;SDS011;36701;51.798;19.474;2023-07-13T15:15:12;2.72;;;2.28;;
50733;SDS011;36701;51.798;19.474;2023-07-13T15:17:40;7.62;;;2.55;;
50733;SDS011;36701;51.798;19.474;2023-07-13T15:22:49;6.70;;;1.90;;
50733;SDS011;36701;51.798;19.474;2023-07-13T15:25:17;2.42;;;2.12;;
50733;SDS011;36701;51.798;19.474;2023-07-13T15:27:44;2.67;;;2.37;;
50733;SDS011;36701;51.798;19.474;2023-07-13T15:30:10;3.10;;;2.60;;
50733;SDS011;36701;51.798;19.474;2023-07-13T15:32:37;3.70;;;3.12;;
50733;SDS011;36701;51.798;19.474;2023-07-13T15:35:09;8.43;;;2.47;;
50733;SDS011;36701;51.798;19.474;2023-07-13T15:37:38;11.40;;;2.35;;
50733;SDS011;36701;51.798;19.474;2023-07-13T15:40:05;3.03;;;2.20;;
50733;SDS011;36701;51.798;19.474;2023-07-13T15:42:32;6.40;;;2.65;;
50733;SDS011;36701;51.798;19.474;2023-07-13T15:45:00;2.80;;;2.60;;
50733;SDS011;36701;51.798;19.474;2023-07-13T15:47:27;3.08;;;2.83;;
50733;SDS011;36701;51.798;19.474;2023-07-13T15:50:00;4.47;;;2.22;;
50733;SDS011;36701;51.798;19.474;2023-07-13T15:52:27;6.18;;;2.92;;
50733;SDS011;36701;51.798;19.474;2023-07-13T15:54:54;2.70;;;2.47;;
50733;SDS011;36701;51.798;19.474;2023-07-13T15:57:20;3.08;;;2.75;;
50733;SDS011;36701;51.798;19.474;2023-07-13T15:59:48;5.97;;;2.72;;
50733;SDS011;36701;51.798;19.474;2023-07-13T16:02:17;2.35;;;2.25;;
50733;SDS011;36701;51.798;19.474;2023-07-13T16:04:47;5.72;;;3.00;;
50733;SDS011;36701;51.798;19.474;2023-07-13T16:07:15;5.55;;;3.53;;
50733;SDS011;36701;51.798;19.474;2023-07-13T16:09:51;3.92;;;2.53;;
50733;SDS011;36701;51.798;19.474;2023-07-13T16:12:17;4.60;;;2.92;;
50733;SDS011;36701;51.798;19.474;2023-07-13T16:14:44;3.47;;;2.75;;
50733;SDS011;36701;51.798;19.474;2023-07-13T16:17:11;2.60;;;2.40;;
50733;SDS011;36701;51.798;19.474;2023-07-13T16:19:38;2.53;;;2.25;;
50733;SDS011;36701;51.798;19.474;2023-07-13T16:22:05;2.60;;;2.30;;
50733;SDS011;36701;51.798;19.474;2023-07-13T16:24:31;3.22;;;2.42;;
50733;SDS011;36701;51.798;19.474;2023-07-13T16:26:58;2.70;;;2.50;;
50733;SDS011;36701;51.798;19.474;2023-07-13T16:29:29;2.55;;;1.95;;
50733;SDS011;36701;51.798;19.474;2023-07-13T16:32:03;4.00;;;2.90;;
50733;SDS011;36701;51.798;19.474;2023-07-13T16:34:31;7.12;;;2.72;;
50733;SDS011;36701;51.798;19.474;2023-07-13T16:36:59;5.60;;;2.42;;
50733;SDS011;36701;51.798;19.474;2023-07-13T16:39:27;7.00;;;2.80;;
50733;SDS011;36701;51.798;19.474;2023-07-13T16:41:55;6.10;;;3.08;;
50733;SDS011;36701;51.798;19.474;2023-07-13T16:44:22;10.75;;;3.22;;
50733;SDS011;36701;51.798;19.474;2023-07-13T16:46:51;3.25;;;2.95;;
50733;SDS011;36701;51.798;19.474;2023-07-13T16:49:24;10.55;;;3.83;;
50733;SDS011;36701;51.798;19.474;2023-07-13T16:51:51;3.05;;;2.72;;
50733;SDS011;36701;51.798;19.474;2023-07-13T16:54:18;6.37;;;2.80;;
50733;SDS011;36701;51.798;19.474;2023-07-13T16:56:45;2.83;;;2.60;;
50733;SDS011;36701;51.798;19.474;2023-07-13T16:59:14;8.05;;;2.75;;
50733;SDS011;36701;51.798;19.474;2023-07-13T17:01:40;7.55;;;2.72;;
50733;SDS011;36701;51.798;19.474;2023-07-13T17:04:08;2.45;;;2.33;;
50733;SDS011;36701;51.798;19.474;2023-07-13T17:06:38;2.55;;;2.35;;
50733;SDS011;36701;51.798;19.474;2023-07-13T17:09:09;3.83;;;2.90;;
50733;SDS011;36701;51.798;19.474;2023-07-13T17:11:40;2.70;;;2.50;;